sensor_id;sensor_type;location;lat;lon;timestamp;pressure;altitude;pressure_sealevel;temperature;humidity
7586;BME280;12459;42.646;23.292;2023-01-29T00:47:36;93682.59;;;8.31;100.00
7586;BME280;12459;42.646;23.292;2023-01-29T01:02:38;93685.69;;;8.34;100.00
7586;BME280;12459;42.646;23.292;2023-01-29T01:17:59;93683.34;;;8.32;100.00
7586;BME280;12459;42.646;23.292;2023-01-29T01:33:01;93679.91;;;8.31;100.00
7586;BME280;12459;42.646;23.292;2023-01-29T01:48:04;93681.06;;;8.30;100.00
7586;BME280;12459;42.646;23.292;2023-01-29T05:04:33;93769.59;;;8.36;100.00
7586;BME280;12459;42.646;23.292;2023-01-29T05:19:35;93770.69;;;8.31;100.00
7586;BME280;12459;42.646;23.292;2023-01-29T05:34:37;93782.53;;;8.30;100.00
7586;BME280;12459;42.646;23.292;2023-01-29T05:49:39;93798.53;;;8.30;100.00
7586;BME280;12459;42.646;23.292;2023-01-29T06:04:40;93805.78;;;8.30;100.00
7586;BME280;12459;42.646;23.292;2023-01-29T06:19:42;93823.72;;;8.29;100.00
7586;BME280;12459;42.646;23.292;2023-01-29T06:50:50;93848.13;;;8.31;100.00
7586;BME280;12459;42.646;23.292;2023-01-29T07:22:12;93884.03;;;8.38;100.00
7586;BME280;12459;42.646;23.292;2023-01-29T07:37:14;93896.63;;;8.37;100.00
7586;BME280;12459;42.646;23.292;2023-01-29T07:52:16;93903.09;;;8.40;100.00
7586;BME280;12459;42.646;23.292;2023-01-29T08:07:22;93911.50;;;8.42;100.00
7586;BME280;12459;42.646;23.292;2023-01-29T08:22:23;93909.97;;;8.41;100.00
7586;BME280;12459;42.646;23.292;2023-01-29T08:37:25;93926.38;;;8.43;100.00
7586;BME280;12459;42.646;23.292;2023-01-29T08:52:27;93940.50;;;8.43;100.00
7586;BME280;12459;42.646;23.292;2023-01-29T09:07:28;93956.50;;;8.43;100.00
7586;BME280;12459;42.646;23.292;2023-01-29T09:22:30;93959.19;;;8.43;100.00
7586;BME280;12459;42.646;23.292;2023-01-29T09:37:32;93944.31;;;8.46;100.00
7586;BME280;12459;42.646;23.292;2023-01-29T09:52:41;93934.00;;;8.44;100.00
7586;BME280;12459;42.646;23.292;2023-01-29T10:07:53;93920.66;;;8.48;100.00
7586;BME280;12459;42.646;23.292;2023-01-29T10:38:36;93897.00;;;8.46;100.00
7586;BME280;12459;42.646;23.292;2023-01-29T10:53:56;93897.75;;;8.43;100.00
7586;BME280;12459;42.646;23.292;2023-01-29T11:24:12;93878.69;;;8.45;100.00
7586;BME280;12459;42.646;23.292;2023-01-29T11:39:18;93855.81;;;8.51;100.00
7586;BME280;12459;42.646;23.292;2023-01-29T11:54:20;93832.53;;;8.55;100.00
7586;BME280;12459;42.646;23.292;2023-01-29T12:09:26;93828.31;;;8.54;100.00
7586;BME280;12459;42.646;23.292;2023-01-29T12:39:31;93837.09;;;8.51;100.00
7586;BME280;12459;42.646;23.292;2023-01-29T12:54:37;93831.38;;;8.49;100.00
7586;BME280;12459;42.646;23.292;2023-01-29T13:09:40;93835.97;;;8.48;100.00
7586;BME280;12459;42.646;23.292;2023-01-29T13:24:44;93826.44;;;8.47;100.00
7586;BME280;12459;42.646;23.292;2023-01-29T13:40:04;93842.06;;;8.49;100.00
7586;BME280;12459;42.646;23.292;2023-01-29T14:10:19;93872.59;;;8.41;100.00
7586;BME280;12459;42.646;23.292;2023-01-29T14:25:22;93878.69;;;8.41;100.00
7586;BME280;12459;42.646;23.292;2023-01-29T14:40:28;93904.63;;;8.41;100.00
7586;BME280;12459;42.646;23.292;2023-01-29T14:55:44;93895.47;;;8.38;100.00
7586;BME280;12459;42.646;23.292;2023-01-29T15:10:52;93900.03;;;8.38;100.00
7586;BME280;12459;42.646;23.292;2023-01-29T15:26:19;93889.38;;;8.34;100.00
7586;BME280;12459;42.646;23.292;2023-01-29T15:41:22;93901.94;;;8.34;100.00
7586;BME280;12459;42.646;23.292;2023-01-29T15:56:25;93906.84;;;8.31;100.00
7586;BME280;12459;42.646;23.292;2023-01-29T16:11:28;93920.19;;;8.31;100.00
7586;BME280;12459;42.646;23.292;2023-01-29T16:26:30;93917.53;;;8.31;100.00
7586;BME280;12459;42.646;23.292;2023-01-29T16:41:33;93930.88;;;8.31;100.00
7586;BME280;12459;42.646;23.292;2023-01-29T16:56:36;93936.59;;;8.26;100.00
7586;BME280;12459;42.646;23.292;2023-01-29T17:11:39;93926.69;;;8.30;100.00
7586;BME280;12459;42.646;23.292;2023-01-29T17:26:42;93928.19;;;8.24;100.00
7586;BME280;12459;42.646;23.292;2023-01-29T17:41:51;93923.63;;;8.25;100.00
7586;BME280;12459;42.646;23.292;2023-01-29T17:57:05;93929.72;;;8.25;100.00
7586;BME280;12459;42.646;23.292;2023-01-29T18:12:08;93920.56;;;8.23;100.00
7586;BME280;12459;42.646;23.292;2023-01-29T18:27:10;93914.09;;;8.20;100.00
7586;BME280;12459;42.646;23.292;2023-01-29T18:42:12;93913.69;;;8.22;100.00
7586;BME280;12459;42.646;23.292;2023-01-29T18:57:13;93922.84;;;8.21;100.00
7586;BME280;12459;42.646;23.292;2023-01-29T19:12:35;93908.75;;;8.20;100.00
7586;BME280;12459;42.646;23.292;2023-01-29T19:27:36;93910.28;;;8.21;100.00
7586;BME280;12459;42.646;23.292;2023-01-29T19:58:48;93910.66;;;8.16;100.00
7586;BME280;12459;42.646;23.292;2023-01-29T20:13:50;93906.84;;;8.21;100.00
7586;BME280;12459;42.646;23.292;2023-01-29T20:28:51;93906.47;;;8.22;100.00
7586;BME280;12459;42.646;23.292;2023-01-29T20:43:53;93907.97;;;8.23;100.00
7586;BME280;12459;42.646;23.292;2023-01-29T20:58:55;93912.56;;;8.23;100.00
7586;BME280;12459;42.646;23.292;2023-01-29T21:13:56;93912.94;;;8.21;100.00
7586;BME280;12459;42.646;23.292;2023-01-29T21:28:58;93927.44;;;8.20;100.00
7586;BME280;12459;42.646;23.292;2023-01-29T21:44:00;93925.91;;;8.19;100.00
7586;BME280;12459;42.646;23.292;2023-01-29T21:59:02;93909.97;;;8.34;100.00
7586;BME280;12459;42.646;23.292;2023-01-29T22:14:03;93884.72;;;8.27;100.00
7586;BME280;12459;42.646;23.292;2023-01-29T22:29:05;93879.00;;;8.22;100.00
7586;BME280;12459;42.646;23.292;2023-01-29T22:44:07;93866.41;;;8.19;100.00
7586;BME280;12459;42.646;23.292;2023-01-29T22:59:09;93861.84;;;8.16;100.00
7586;BME280;12459;42.646;23.292;2023-01-29T23:14:11;93843.53;;;8.18;100.00
7586;BME280;12459;42.646;23.292;2023-01-29T23:29:12;93845.06;;;8.15;100.00
7586;BME280;12459;42.646;23.292;2023-01-29T23:44:14;93845.06;;;8.15;100.00
7586;BME280;12459;42.646;23.292;2023-01-29T23:59:16;93838.97;;;8.15;100.00
